Time;durP1;ratioP1;P1;durP2;ratioP2;P2;SDS_P1;SDS_P2;PMS_P1;PMS_P2;Temp;Humidity;BMP_temperature;BMP_pressure;BME280_temperature;BME280_humidity;BME280_pressure;Samples;Min_cycle;Max_cycle;Signal;HPM_P1;HPM_P2
2024/04/09 00:02:08;;;;;;;522.22;149.20;;;24.90;26.40;;;;;;5307013;26;20012;-60
2024/04/09 00:04:39;;;;;;;576.45;169.55;;;24.90;26.30;;;;;;5319605;26;20090;-60
2024/04/09 00:07:10;;;;;;;537.80;152.32;;;24.90;26.30;;;;;;5322699;26;20078;-59
2024/04/09 00:09:45;;;;;;;706.00;230.02;;;24.80;26.30;;;;;;5308017;26;20009;-60
2024/04/09 00:12:20;;;;;;;637.90;186.10;;;24.80;26.30;;;;;;5311449;26;20001;-59
2024/04/09 00:14:51;;;;;;;516.65;142.77;;;24.70;26.60;;;;;;5325394;26;20095;-60
2024/04/09 00:17:25;;;;;;;528.80;146.68;;;24.60;26.30;;;;;;5309126;26;20009;-61
2024/04/09 00:19:56;;;;;;;556.17;155.02;;;24.50;26.30;;;;;;5308456;26;20020;-61
2024/04/09 00:22:27;;;;;;;519.22;142.82;;;24.50;26.40;;;;;;5323814;26;20001;-61
2024/04/09 00:24:59;;;;;;;536.65;148.90;;;24.50;26.50;;;;;;5314403;26;20432;-59
2024/04/09 00:27:27;;;;;;;533.38;147.15;;;24.40;26.50;;;;;;5321568;26;20001;-59
2024/04/09 00:29:58;;;;;;;536.17;151.18;;;24.40;26.50;;;;;;5314205;26;19998;-61
2024/04/09 00:32:26;;;;;;;513.20;141.43;;;24.40;26.60;;;;;;5314967;26;20042;-60
2024/04/09 00:34:58;;;;;;;535.22;146.88;;;24.40;26.60;;;;;;5310151;26;22114;-60
2024/04/09 00:37:29;;;;;;;541.22;148.82;;;24.40;26.60;;;;;;5313202;26;20055;-59
2024/04/09 00:40:00;;;;;;;508.70;139.60;;;24.40;26.70;;;;;;5318540;26;20019;-61
2024/04/09 00:42:28;;;;;;;522.85;142.82;;;24.40;26.70;;;;;;5313686;26;20012;-61
2024/04/09 00:44:59;;;;;;;528.67;145.80;;;24.40;26.70;;;;;;5311277;26;20363;-61
2024/04/09 00:47:27;;;;;;;507.20;141.75;;;24.40;27.20;;;;;;5309008;26;20009;-61
2024/04/09 00:50:00;;;;;;;533.35;143.73;;;24.40;26.70;;;;;;5305975;26;20529;-61
2024/04/09 00:52:31;;;;;;;533.20;145.35;;;24.40;26.80;;;;;;5317323;26;20001;-60
2024/04/09 00:55:05;;;;;;;578.45;164.57;;;24.40;26.80;;;;;;5318530;26;20005;-60
2024/04/09 00:57:34;;;;;;;830.03;255.27;;;24.40;26.80;;;;;;5295552;26;20041;-61
2024/04/09 01:00:07;;;;;;;527.70;177.95;;;24.40;26.80;;;;;;5315660;26;20001;-60
2024/04/09 01:02:37;;;;;;;702.20;211.55;;;24.40;26.80;;;;;;5298828;26;20396;-59
2024/04/09 01:05:09;;;;;;;541.17;155.40;;;24.40;26.80;;;;;;5301492;26;20010;-61
2024/04/09 01:07:41;;;;;;;695.05;218.75;;;24.50;26.80;;;;;;5286450;26;20001;-60
2024/04/09 01:10:12;;;;;;;561.13;156.23;;;24.40;26.80;;;;;;5297667;26;20036;-60
2024/04/09 01:12:41;;;;;;;543.70;150.15;;;24.50;26.80;;;;;;5293283;26;20371;-61
2024/04/09 01:15:13;;;;;;;527.08;146.43;;;24.50;26.80;;;;;;5305397;26;20002;-60
2024/04/09 01:17:41;;;;;;;707.28;222.90;;;24.50;26.80;;;;;;5302552;26;19997;-62
2024/04/09 01:20:13;;;;;;;509.00;143.60;;;24.50;26.80;;;;;;5316225;26;20001;-61
2024/04/09 01:22:44;;;;;;;527.15;149.65;;;24.60;26.80;;;;;;5324269;26;20016;-59
2024/04/09 01:25:14;;;;;;;547.83;156.75;;;24.60;26.80;;;;;;5311254;26;20086;-61
2024/04/09 01:27:43;;;;;;;692.20;222.45;;;24.60;26.80;;;;;;5310113;26;20001;-60
2024/04/09 01:30:14;;;;;;;547.05;154.73;;;24.60;26.70;;;;;;5313522;26;20544;-59
2024/04/09 01:32:44;;;;;;;520.80;146.15;;;24.60;26.70;;;;;;5310896;26;20013;-60
2024/04/09 01:35:15;;;;;;;514.88;145.73;;;24.70;26.70;;;;;;5317815;26;20000;-61
2024/04/09 01:37:46;;;;;;;705.75;230.82;;;24.70;26.70;;;;;;5313250;26;20258;-61
2024/04/09 01:40:19;;;;;;;506.48;145.45;;;24.70;26.70;;;;;;5319361;26;20005;-59
2024/04/09 01:42:47;;;;;;;534.75;151.95;;;24.70;26.70;;;;;;5314318;26;20077;-60
2024/04/09 01:45:17;;;;;;;517.17;146.48;;;24.70;27.20;;;;;;5313145;26;20385;-60
2024/04/09 01:47:46;;;;;;;619.25;198.85;;;24.70;26.60;;;;;;5287129;26;20006;-62
2024/04/09 01:50:17;;;;;;;528.63;150.57;;;24.70;26.70;;;;;;5317155;26;19997;-60
2024/04/09 01:52:50;;;;;;;512.88;141.38;;;24.70;26.70;;;;;;5316483;26;20441;-61
2024/04/09 01:55:23;;;;;;;535.78;149.48;;;24.70;26.60;;;;;;5307937;26;20001;-60
2024/04/09 01:57:52;;;;;;;563.20;161.52;;;24.60;26.60;;;;;;5311232;26;20005;-59
2024/04/09 02:00:24;;;;;;;536.33;166.45;;;24.60;26.60;;;;;;5322276;26;20005;-61
2024/04/09 02:02:53;;;;;;;532.28;154.60;;;24.60;26.70;;;;;;5306903;26;20015;-61
2024/04/09 02:05:24;;;;;;;520.78;158.15;;;24.60;26.70;;;;;;5318964;26;20181;-61
2024/04/09 02:07:55;;;;;;;521.63;154.88;;;24.60;26.70;;;;;;5315523;26;20045;-61
2024/04/09 02:10:28;;;;;;;522.35;147.40;;;24.60;26.70;;;;;;5315062;26;20002;-61
2024/04/09 02:12:56;;;;;;;508.33;143.20;;;24.60;26.70;;;;;;5318415;26;20079;-60
2024/04/09 02:15:28;;;;;;;530.92;149.63;;;24.60;26.70;;;;;;5309174;26;19997;-62
2024/04/09 02:17:56;;;;;;;522.53;164.55;;;24.60;26.80;;;;;;5316967;26;20009;-60
2024/04/09 02:20:29;;;;;;;515.38;159.45;;;24.60;26.70;;;;;;5314894;26;20403;-60
2024/04/09 02:22:59;;;;;;;546.17;168.05;;;24.60;26.70;;;;;;5303613;26;20025;-59
2024/04/09 02:25:31;;;;;;;527.40;157.40;;;24.60;26.70;;;;;;5312783;26;20455;-61
2024/04/09 02:27:59;;;;;;;526.00;148.68;;;24.60;26.70;;;;;;5316386;26;20468;-61
2024/04/09 02:30:29;;;;;;;512.20;149.68;;;24.60;26.70;;;;;;5303493;26;20016;-62
2024/04/09 02:32:58;;;;;;;577.55;169.77;;;24.60;26.60;;;;;;5302080;26;20060;-60
2024/04/09 02:35:29;;;;;;;531.28;147.80;;;24.60;26.70;;;;;;5301989;26;20001;-59
2024/04/09 02:38:00;;;;;;;525.03;149.75;;;24.50;26.70;;;;;;5306710;26;20480;-61
2024/04/09 02:40:31;;;;;;;513.92;147.32;;;24.50;26.70;;;;;;5324642;26;20005;-61
2024/04/09 02:43:00;;;;;;;505.38;139.18;;;24.40;26.60;;;;;;5319619;26;20475;-61
2024/04/09 02:45:31;;;;;;;527.47;146.93;;;24.40;26.70;;;;;;5311940;26;20153;-62
2024/04/09 02:47:59;;;;;;;542.42;152.00;;;24.40;26.70;;;;;;5298027;26;20009;-59
2024/04/09 02:50:29;;;;;;;535.75;149.35;;;24.30;26.70;;;;;;5313997;26;21708;-65
2024/04/09 02:53:00;;;;;;;504.45;140.45;;;24.30;26.70;;;;;;5315276;26;20012;-61
2024/04/09 02:55:31;;;;;;;567.70;162.27;;;24.20;26.70;;;;;;5311081;26;20787;-60
2024/04/09 02:57:59;;;;;;;509.75;143.55;;;24.20;26.80;;;;;;5319460;26;20074;-61
2024/04/09 03:00:30;;;;;;;529.42;146.95;;;24.20;26.90;;;;;;5311914;26;20033;-61
2024/04/09 03:02:59;;;;;;;519.50;146.32;;;24.20;26.90;;;;;;5292916;26;20034;-61
2024/04/09 03:05:34;;;;;;;520.55;146.27;;;24.10;26.90;;;;;;5308889;26;20095;-59
2024/04/09 03:08:05;;;;;;;532.88;148.35;;;24.10;26.90;;;;;;5323534;26;20079;-62
2024/04/09 03:10:36;;;;;;;518.80;141.88;;;24.00;26.90;;;;;;5321351;26;20019;-61
2024/04/09 03:13:04;;;;;;;518.13;138.95;;;24.00;26.90;;;;;;5315739;26;20013;-62
2024/04/09 03:15:35;;;;;;;734.25;221.05;;;24.00;27.00;;;;;;5293166;26;20019;-60
2024/04/09 03:18:06;;;;;;;521.70;140.40;;;24.00;27.00;;;;;;5309216;26;20001;-60
2024/04/09 03:20:37;;;;;;;544.50;145.48;;;24.00;26.90;;;;;;5315634;26;20083;-61
2024/04/09 03:23:08;;;;;;;513.30;140.38;;;23.90;26.90;;;;;;5318022;26;20033;-62
2024/04/09 03:25:38;;;;;;;710.17;210.32;;;23.90;27.00;;;;;;5306905;26;20008;-62
2024/04/09 03:28:06;;;;;;;531.25;143.48;;;23.90;27.00;;;;;;5312588;26;20025;-63
2024/04/09 03:30:37;;;;;;;544.92;155.25;;;23.80;27.00;;;;;;5310006;26;20045;-60
2024/04/09 03:33:05;;;;;;;549.85;151.07;;;23.80;27.00;;;;;;5303435;26;20079;-61
2024/04/09 03:35:36;;;;;;;679.60;218.43;;;23.80;27.00;;;;;;5308855;26;20013;-63
2024/04/09 03:38:09;;;;;;;567.72;152.27;;;23.70;27.10;;;;;;5311424;26;20570;-60
2024/04/09 03:40:40;;;;;;;539.97;144.15;;;23.70;27.60;;;;;;5312296;26;20010;-60
2024/04/09 03:43:11;;;;;;;519.05;140.73;;;23.70;27.10;;;;;;5312948;26;20005;-62
2024/04/09 03:45:39;;;;;;;710.78;242.88;;;23.70;27.20;;;;;;5304690;26;20123;-62
2024/04/09 03:48:10;;;;;;;524.75;144.13;;;23.70;27.20;;;;;;5324331;26;20148;-62
2024/04/09 03:50:38;;;;;;;529.60;145.85;;;23.70;27.20;;;;;;5373851;26;20056;-60
2024/04/09 03:53:11;;;;;;;531.78;142.90;;;23.70;27.20;;;;;;5310662;26;20013;-60
2024/04/09 03:55:40;;;;;;;792.85;243.82;;;23.70;27.10;;;;;;5306959;26;20005;-61
2024/04/09 03:58:11;;;;;;;524.42;142.82;;;23.60;27.10;;;;;;5313387;26;20004;-62
2024/04/09 04:00:39;;;;;;;536.67;146.82;;;23.60;27.20;;;;;;5299636;26;20083;-60
2024/04/09 04:03:10;;;;;;;541.92;144.38;;;23.60;27.20;;;;;;5316874;26;20036;-62
2024/04/09 04:05:38;;;;;;;716.22;217.73;;;23.60;27.30;;;;;;5311784;26;20009;-62
2024/04/09 04:08:12;;;;;;;525.13;141.38;;;23.60;27.70;;;;;;5316349;26;20021;-62
2024/04/09 04:10:39;;;;;;;556.67;150.00;;;23.60;27.30;;;;;;5310312;26;20124;-61
2024/04/09 04:13:10;;;;;;;584.65;154.20;;;23.60;27.30;;;;;;5310858;26;20934;-61
2024/04/09 04:15:39;;;;;;;707.60;222.95;;;23.60;27.30;;;;;;5301444;26;20019;-61
2024/04/09 04:18:12;;;;;;;525.17;141.50;;;23.70;27.30;;;;;;5313828;26;20031;-60
2024/04/09 04:20:40;;;;;;;546.08;141.30;;;23.60;27.20;;;;;;5303880;26;20020;-59
2024/04/09 04:23:14;;;;;;;546.30;146.00;;;23.60;27.10;;;;;;5294578;26;20005;-63
2024/04/09 04:25:42;;;;;;;809.45;260.55;;;23.60;27.20;;;;;;5301828;26;20352;-59
2024/04/09 04:28:13;;;;;;;537.33;143.52;;;23.60;27.30;;;;;;5320069;26;20016;-60
2024/04/09 04:30:41;;;;;;;558.97;145.93;;;23.50;27.20;;;;;;5316199;26;20362;-63
2024/04/09 04:33:15;;;;;;;541.10;145.23;;;23.50;27.20;;;;;;5316965;26;20009;-62
2024/04/09 04:35:44;;;;;;;745.88;249.77;;;23.50;27.20;;;;;;5296167;26;20087;-62
2024/04/09 04:38:17;;;;;;;547.38;148.00;;;23.40;27.20;;;;;;5301975;26;20091;-63
2024/04/09 04:40:57;;;;;;;535.05;139.10;;;23.40;27.20;;;;;;5314159;26;20037;-62
2024/04/09 04:43:26;;;;;;;557.88;145.88;;;23.50;27.20;;;;;;5312971;26;20009;-62
2024/04/09 04:45:57;;;;;;;570.47;149.90;;;23.40;27.20;;;;;;5308472;26;20001;-60
2024/04/09 04:48:27;;;;;;;526.78;141.68;;;23.40;27.20;;;;;;5311571;26;20028;-60
2024/04/09 04:50:57;;;;;;;573.90;166.60;;;23.50;27.20;;;;;;5316555;26;20412;-62
2024/04/09 04:53:29;;;;;;;531.85;138.25;;;23.50;27.10;;;;;;5321467;26;20021;-59
2024/04/09 04:56:00;;;;;;;531.05;143.20;;;23.50;27.20;;;;;;5314372;26;20084;-60
2024/04/09 04:58:28;;;;;;;548.42;157.57;;;23.50;27.20;;;;;;5314624;26;22166;-62
2024/04/09 05:00:59;;;;;;;562.47;160.60;;;23.60;27.20;;;;;;5332726;26;20006;-61
2024/04/09 05:03:27;;;;;;;577.85;178.40;;;23.60;27.10;;;;;;5300929;26;20025;-59
2024/04/09 05:06:07;;;;;;;546.60;144.48;;;23.60;27.20;;;;;;5313553;26;20005;-62
2024/04/09 05:08:38;;;;;;;523.17;136.50;;;23.70;27.10;;;;;;5312051;26;20387;-61
2024/04/09 05:11:12;;;;;;;569.60;150.35;;;23.70;27.10;;;;;;5311495;26;20009;-60
2024/04/09 05:13:40;;;;;;;733.25;228.52;;;23.80;27.20;;;;;;5303308;26;19997;-59
2024/04/09 05:16:11;;;;;;;561.75;148.75;;;23.80;27.10;;;;;;5305974;26;20214;-59
2024/04/09 05:18:39;;;;;;;567.58;159.20;;;23.90;27.10;;;;;;5336220;26;20005;-60
2024/04/09 05:21:10;;;;;;;543.05;150.65;;;24.00;27.10;;;;;;5311531;26;20005;-60
2024/04/09 05:23:41;;;;;;;745.00;247.68;;;24.00;27.00;;;;;;5309754;26;20032;-62
2024/04/09 05:26:12;;;;;;;581.75;162.38;;;24.10;27.10;;;;;;5313754;26;20013;-60
2024/04/09 05:28:55;;;;;;;545.15;153.40;;;24.20;27.00;;;;;;5316752;26;20024;-64
2024/04/09 05:31:26;;;;;;;551.00;154.18;;;24.30;27.00;;;;;;5310570;26;20041;-62
2024/04/09 05:33:54;;;;;;;547.92;159.45;;;24.40;27.00;;;;;;5308506;26;21014;-62
2024/04/09 05:36:26;;;;;;;559.45;156.50;;;24.50;27.00;;;;;;5309132;26;20091;-62
2024/04/09 05:38:57;;;;;;;574.20;159.93;;;24.60;26.90;;;;;;5307988;26;20008;-61
2024/04/09 05:41:30;;;;;;;575.72;163.63;;;24.70;26.80;;;;;;5313595;26;20020;-60
2024/04/09 05:43:59;;;;;;;538.83;153.27;;;24.70;27.30;;;;;;5311572;26;20471;-61
2024/04/09 05:46:30;;;;;;;538.80;164.73;;;24.70;26.70;;;;;;5304269;26;20012;-62
2024/04/09 05:48:58;;;;;;;604.70;311.73;;;24.60;26.70;;;;;;5312527;26;20074;-61
2024/04/09 05:51:30;;;;;;;555.22;207.65;;;24.60;26.70;;;;;;5316247;26;20015;-59
2024/04/09 05:54:01;;;;;;;552.60;153.85;;;24.50;26.80;;;;;;5320258;26;20039;-60
2024/04/09 05:56:32;;;;;;;624.03;306.05;;;24.50;26.80;;;;;;5310590;26;20015;-60
2024/04/09 05:59:00;;;;;;;528.28;161.57;;;24.60;26.80;;;;;;5317919;26;20016;-63
2024/04/09 06:01:31;;;;;;;582.03;265.25;;;24.60;26.80;;;;;;5311716;26;20017;-63
2024/04/09 06:03:59;;;;;;;529.13;172.02;;;24.70;26.80;;;;;;5307594;26;20013;-60
2024/04/09 06:06:30;;;;;;;549.15;156.30;;;24.80;26.70;;;;;;5322048;26;20492;-60
2024/04/09 06:09:01;;;;;;;543.33;221.15;;;24.90;26.60;;;;;;5311818;26;20000;-62
2024/04/09 06:11:32;;;;;;;601.28;176.88;;;25.10;26.60;;;;;;5308856;26;20005;-60
2024/04/09 06:14:01;;;;;;;588.65;170.63;;;25.10;26.60;;;;;;5315315;26;20112;-60
2024/04/09 06:16:32;;;;;;;544.53;156.68;;;25.20;26.50;;;;;;5320977;26;20539;-61
2024/04/09 06:19:00;;;;;;;530.70;160.75;;;25.30;26.40;;;;;;5320599;26;20005;-59
2024/04/09 06:21:31;;;;;;;537.60;155.57;;;25.40;26.50;;;;;;5320478;26;20056;-62
2024/04/09 06:24:02;;;;;;;517.78;152.80;;;25.50;26.40;;;;;;5319049;26;20009;-60
2024/04/09 06:26:34;;;;;;;524.92;154.95;;;25.60;26.40;;;;;;5327779;26;20046;-60
2024/04/09 06:29:02;;;;;;;522.42;158.85;;;25.70;26.30;;;;;;5314815;26;20124;-60
2024/04/09 06:31:33;;;;;;;582.92;177.00;;;25.80;26.80;;;;;;5306691;26;20467;-61
2024/04/09 06:34:02;;;;;;;580.47;173.57;;;25.90;26.10;;;;;;5321503;26;19997;-61
2024/04/09 06:36:33;;;;;;;532.65;162.82;;;25.90;26.10;;;;;;5321158;26;20128;-63
2024/04/09 06:39:05;;;;;;;558.22;172.05;;;26.00;26.10;;;;;;5326351;26;20019;-63
2024/04/09 06:41:36;;;;;;;685.33;220.88;;;26.20;26.10;;;;;;5308163;26;20001;-59
2024/04/09 06:44:04;;;;;;;564.83;177.43;;;26.30;26.60;;;;;;5307545;26;20426;-61
2024/04/09 06:46:35;;;;;;;543.00;173.48;;;26.40;26.00;;;;;;5321950;26;20000;-60
2024/04/09 06:49:03;;;;;;;575.60;184.15;;;26.60;26.00;;;;;;5317525;26;20372;-61
2024/04/09 06:51:34;;;;;;;638.42;212.40;;;26.70;26.00;;;;;;5310698;26;20005;-59
2024/04/09 06:54:05;;;;;;;562.03;182.30;;;26.90;25.90;;;;;;5323688;26;21648;-60
2024/04/09 06:56:35;;;;;;;564.38;187.82;;;27.10;25.80;;;;;;5323700;26;20005;-61
2024/04/09 06:59:03;;;;;;;567.60;184.32;;;27.20;25.80;;;;;;5323129;26;20012;-61
2024/04/09 07:01:34;;;;;;;686.35;231.98;;;27.20;26.20;;;;;;5296246;26;20033;-59
2024/04/09 07:04:04;;;;;;;538.38;179.27;;;27.20;25.60;;;;;;5320529;26;20815;-62
2024/04/09 07:06:35;;;;;;;549.13;183.15;;;27.20;25.50;;;;;;5319539;26;20009;-60
2024/04/09 07:09:06;;;;;;;542.22;183.43;;;27.30;25.60;;;;;;5321079;26;20440;-59
2024/04/09 07:11:37;;;;;;;733.45;262.98;;;27.40;25.60;;;;;;5309595;26;20024;-59
2024/04/09 07:14:05;;;;;;;576.22;193.85;;;27.60;25.60;;;;;;5319819;26;20037;-60
2024/04/09 07:16:36;;;;;;;552.83;191.52;;;27.70;25.40;;;;;;5312766;26;20005;-60
2024/04/09 07:19:05;;;;;;;531.03;185.63;;;27.80;25.40;;;;;;5317496;26;20001;-59
2024/04/09 07:21:36;;;;;;;703.72;257.77;;;27.90;25.30;;;;;;5314964;26;20056;-62
2024/04/09 07:24:08;;;;;;;532.22;191.90;;;28.10;25.30;;;;;;5314636;26;20001;-61
2024/04/09 07:26:39;;;;;;;564.13;208.68;;;28.40;25.30;;;;;;5311183;26;20037;-61
2024/04/09 07:29:07;;;;;;;563.00;212.93;;;28.90;25.20;;;;;;5311454;26;20016;-63
2024/04/09 07:31:40;;;;;;;710.90;289.65;;;29.60;25.00;;;;;;5304310;26;20012;-62
2024/04/09 07:34:09;;;;;;;551.15;225.23;;;30.20;24.70;;;;;;5311369;26;20008;-62
2024/04/09 07:36:41;;;;;;;551.83;231.75;;;30.60;24.20;;;;;;5308593;26;20014;-61
2024/04/09 07:39:14;;;;;;;579.30;250.88;;;30.80;24.20;;;;;;5312016;26;20020;-59
2024/04/09 07:41:46;;;;;;;745.83;334.48;;;31.20;24.10;;;;;;5302821;26;20012;-60
2024/04/09 07:44:14;;;;;;;604.88;276.17;;;31.30;23.90;;;;;;5315780;26;20092;-60
2024/04/09 07:46:48;;;;;;;587.15;293.23;;;31.40;23.60;;;;;;5299363;26;20018;-60
2024/04/09 07:49:16;;;;;;;573.70;268.27;;;31.60;23.70;;;;;;5304121;26;20016;-63
2024/04/09 07:51:48;;;;;;;766.35;353.23;;;32.30;23.60;;;;;;5311042;26;20032;-59
2024/04/09 07:54:18;;;;;;;551.95;261.80;;;32.70;23.10;;;;;;5302875;26;20002;-60
2024/04/09 07:56:49;;;;;;;576.63;276.52;;;33.30;23.00;;;;;;5318745;26;20009;-60
2024/04/09 07:59:17;;;;;;;577.40;289.70;;;33.90;22.80;;;;;;5313781;26;20001;-60
2024/04/09 08:01:49;;;;;;;791.97;394.63;;;34.60;22.80;;;;;;5304636;26;20001;-60
2024/04/09 08:04:17;;;;;;;570.20;328.77;;;35.20;22.60;;;;;;5314027;26;20005;-63
2024/04/09 08:06:48;;;;;;;597.45;337.40;;;35.90;22.30;;;;;;5321236;26;20013;-61
2024/04/09 08:09:19;;;;;;;615.95;356.58;;;36.40;22.10;;;;;;5319345;26;20338;-61
2024/04/09 08:11:51;;;;;;;643.88;384.27;;;36.80;21.90;;;;;;5311067;26;20012;-61
2024/04/09 08:14:22;;;;;;;592.60;363.05;;;37.10;21.50;;;;;;5305580;26;20013;-61
2024/04/09 08:16:53;;;;;;;574.40;361.42;;;37.30;21.40;;;;;;5326425;26;20423;-63
2024/04/09 08:19:22;;;;;;;572.53;360.27;;;37.50;21.20;;;;;;5321352;26;20038;-61
2024/04/09 08:21:54;;;;;;;640.90;405.75;;;37.70;21.10;;;;;;5303862;26;21343;-61
2024/04/09 08:24:25;;;;;;;617.13;395.27;;;38.00;21.00;;;;;;5322260;26;20436;-61
2024/04/09 08:26:56;;;;;;;612.83;387.48;;;38.30;21.00;;;;;;5306668;26;20005;-61
2024/04/09 08:29:26;;;;;;;584.08;389.67;;;38.50;21.00;;;;;;5310621;26;20034;-64
2024/04/09 08:31:57;;;;;;;588.58;386.75;;;38.70;20.70;;;;;;5312543;26;20064;-62
2024/04/09 08:34:26;;;;;;;583.53;402.70;;;39.10;20.70;;;;;;5302232;26;20065;-61
2024/04/09 08:36:56;;;;;;;590.28;408.35;;;39.50;20.60;;;;;;5316933;26;20033;-62
2024/04/09 08:39:28;;;;;;;628.58;435.50;;;40.00;20.60;;;;;;5312660;26;20008;-62
2024/04/09 08:41:59;;;;;;;610.15;441.67;;;40.60;20.60;;;;;;5316968;26;19997;-60
2024/04/09 08:44:28;;;;;;;612.67;455.35;;;41.10;20.30;;;;;;5321230;26;20464;-60
2024/04/09 08:47:02;;;;;;;597.35;459.40;;;41.90;20.30;;;;;;5327624;26;20048;-60
2024/04/09 08:49:30;;;;;;;646.25;475.75;;;42.10;20.00;;;;;;5308598;26;20008;-60
2024/04/09 08:52:02;;;;;;;607.63;469.38;;;42.10;19.70;;;;;;5318343;26;20707;-63
2024/04/09 08:54:33;;;;;;;594.33;471.58;;;42.40;19.90;;;;;;5321907;26;20027;-61
2024/04/09 08:57:05;;;;;;;648.83;499.50;;;42.80;19.90;;;;;;5322170;26;20009;-65
2024/04/09 08:59:33;;;;;;;752.58;544.25;;;42.90;19.70;;;;;;5316445;26;20360;-61
2024/04/09 09:02:06;;;;;;;619.50;501.60;;;43.00;19.80;;;;;;5311104;26;20013;-61
2024/04/09 09:04:36;;;;;;;615.22;517.20;;;43.50;19.90;;;;;;5317282;26;20013;-59
2024/04/09 09:07:15;;;;;;;613.35;523.33;;;44.20;19.80;;;;;;5311461;26;20010;-60
2024/04/09 09:09:50;;;;;;;777.78;591.53;;;44.50;19.30;;;;;;5306810;26;20006;-61
2024/04/09 09:12:18;;;;;;;619.80;539.03;;;44.70;19.30;;;;;;5306990;26;20005;-60
2024/04/09 09:14:54;;;;;;;661.17;554.35;;;45.10;19.20;;;;;;5311600;26;20004;-60
2024/04/09 09:17:25;;;;;;;622.42;543.13;;;45.30;19.00;;;;;;5326361;26;20005;-60
2024/04/09 09:20:08;;;;;;;620.60;548.22;;;45.50;19.00;;;;;;5309859;26;20008;-60
2024/04/09 09:22:43;;;;;;;638.35;559.40;;;46.00;18.90;;;;;;5294582;26;20353;-61
2024/04/09 09:25:20;;;;;;;655.97;563.85;;;46.10;18.50;;;;;;5320280;26;19997;-60
2024/04/09 09:27:49;;;;;;;653.20;580.65;;;46.30;18.60;;;;;;5310053;26;20065;-59
2024/04/09 09:30:19;;;;;;;626.40;557.60;;;46.40;18.50;;;;;;5313242;26;20013;-59
2024/04/09 09:32:49;;;;;;;639.72;567.78;;;46.70;18.50;;;;;;5307650;26;20001;-62
2024/04/09 09:35:21;;;;;;;632.78;564.63;;;47.30;18.50;;;;;;5317701;26;20082;-61
2024/04/09 09:37:55;;;;;;;684.47;597.72;;;47.80;18.20;;;;;;5290898;26;20002;-59
2024/04/09 09:40:34;;;;;;;660.15;588.30;;;48.30;18.00;;;;;;5312767;26;20001;-61
2024/04/09 09:43:04;;;;;;;657.33;587.25;;;48.90;17.90;;;;;;5311269;26;20023;-62
2024/04/09 09:45:37;;;;;;;752.60;627.92;;;49.00;17.70;;;;;;5310605;26;20001;-61
2024/04/09 09:48:07;;;;;;;654.40;585.55;;;48.90;17.60;;;;;;5343345;26;20460;-61
2024/04/09 09:50:57;;;;;;;683.67;610.35;;;49.00;17.70;;;;;;5306901;26;20012;-61
2024/04/09 09:53:26;;;;;;;666.20;597.92;;;49.40;17.70;;;;;;5322674;26;20013;-64
2024/04/09 09:56:06;;;;;;;680.42;610.70;;;49.80;17.60;;;;;;5317553;26;20418;-61
2024/04/09 09:58:37;;;;;;;694.53;622.05;;;50.40;17.50;;;;;;5305641;26;20009;-62
2024/04/09 10:01:12;;;;;;;766.08;692.33;;;50.70;17.30;;;;;;5305739;26;20012;-62
2024/04/09 10:03:40;;;;;;;850.65;679.20;;;50.40;17.10;;;;;;5303290;26;20476;-65
2024/04/09 10:06:12;;;;;;;673.90;603.63;;;50.10;17.20;;;;;;5314485;26;20020;-60
2024/04/09 10:08:41;;;;;;;684.25;612.25;;;49.70;17.10;;;;;;5311544;26;20021;-62
2024/04/09 10:11:15;;;;;;;672.72;602.63;;;49.40;17.10;;;;;;5314280;26;20373;-61
2024/04/09 10:13:49;;;;;;;833.42;672.38;;;49.30;17.20;;;;;;5301686;26;20013;-63
2024/04/09 10:16:21;;;;;;;662.17;593.22;;;49.10;17.10;;;;;;5317235;26;20021;-61
2024/04/09 10:18:51;;;;;;;666.78;595.97;;;49.00;17.10;;;;;;5322911;26;20041;-61
2024/04/09 10:21:35;;;;;;;660.55;592.58;;;49.10;17.10;;;;;;5311279;26;20001;-63
2024/04/09 10:24:08;;;;;;;656.70;588.42;;;49.30;17.10;;;;;;5321127;26;20011;-64
2024/04/09 10:26:44;;;;;;;662.92;593.45;;;49.30;16.90;;;;;;5315588;26;20024;-62
2024/04/09 10:29:20;;;;;;;659.60;589.28;;;49.00;16.90;;;;;;5310909;26;20001;-62
2024/04/09 10:31:53;;;;;;;667.85;597.60;;;48.70;16.80;;;;;;5303917;26;20069;-63
2024/04/09 10:34:26;;;;;;;667.95;598.75;;;48.30;16.80;;;;;;5320631;26;20005;-61
2024/04/09 10:37:02;;;;;;;663.47;588.92;;;47.80;16.80;;;;;;5313370;26;20075;-62
2024/04/09 10:39:35;;;;;;;750.65;613.35;;;47.50;16.90;;;;;;5306718;26;20327;-63
2024/04/09 10:42:10;;;;;;;634.67;565.20;;;47.30;16.90;;;;;;5302914;26;20016;-60
2024/04/09 10:44:39;;;;;;;626.15;557.42;;;47.00;17.00;;;;;;5313415;26;20020;-59
2024/04/09 10:47:11;;;;;;;628.47;559.58;;;47.00;17.00;;;;;;5320411;26;20001;-60
2024/04/09 10:49:40;;;;;;;794.20;616.47;;;46.90;16.90;;;;;;5312080;26;20475;-61
2024/04/09 10:52:11;;;;;;;653.88;568.65;;;46.80;17.00;;;;;;5313124;26;20009;-61
2024/04/09 10:54:39;;;;;;;639.80;555.78;;;46.80;17.00;;;;;;5310674;26;20040;-59
2024/04/09 10:57:13;;;;;;;608.30;537.05;;;46.70;17.00;;;;;;5319481;26;20001;-60
2024/04/09 10:59:41;;;;;;;819.45;626.85;;;46.40;16.90;;;;;;5296389;26;20046;-61
2024/04/09 11:02:13;;;;;;;610.53;530.92;;;46.10;16.90;;;;;;5321396;26;20005;-63
2024/04/09 11:04:43;;;;;;;622.42;520.05;;;45.50;16.80;;;;;;5323094;26;20000;-61
2024/04/09 11:07:15;;;;;;;608.63;504.27;;;44.90;16.80;;;;;;5326421;26;20323;-65
2024/04/09 11:09:43;;;;;;;777.65;555.67;;;44.30;16.90;;;;;;5310011;26;20001;-63
2024/04/09 11:12:16;;;;;;;602.75;474.05;;;43.60;17.00;;;;;;5313038;26;20855;-61
2024/04/09 11:14:45;;;;;;;632.58;493.70;;;42.70;17.20;;;;;;5319100;26;20001;-60
2024/04/09 11:17:19;;;;;;;636.58;471.05;;;41.70;17.40;;;;;;5315832;26;20019;-63
2024/04/09 11:19:47;;;;;;;651.53;466.13;;;40.70;17.70;;;;;;5315050;26;20319;-60
2024/04/09 11:22:20;;;;;;;599.20;428.40;;;39.80;18.00;;;;;;5315769;26;20078;-61
2024/04/09 11:24:48;;;;;;;631.58;428.40;;;38.80;18.20;;;;;;5322678;26;20016;-58
2024/04/09 11:27:22;;;;;;;612.22;407.50;;;38.20;18.60;;;;;;5317745;26;20473;-61
2024/04/09 11:29:50;;;;;;;623.35;412.25;;;37.50;18.70;;;;;;5313692;26;20245;-63
2024/04/09 11:32:21;;;;;;;657.40;415.40;;;37.10;19.00;;;;;;5314446;26;20356;-61
2024/04/09 11:34:49;;;;;;;641.50;447.23;;;36.70;19.10;;;;;;5316626;26;20049;-60
2024/04/09 11:37:22;;;;;;;622.55;414.15;;;36.30;19.50;;;;;;5326724;26;20005;-62
2024/04/09 11:39:50;;;;;;;614.50;402.55;;;36.00;19.30;;;;;;5304797;26;21110;-61
2024/04/09 11:42:27;;;;;;;602.90;370.98;;;35.80;19.40;;;;;;5326721;26;20033;-62
2024/04/09 11:45:00;;;;;;;609.67;405.45;;;35.60;19.50;;;;;;5324258;26;20016;-61
2024/04/09 11:47:32;;;;;;;644.55;397.45;;;35.30;19.60;;;;;;5316716;26;20098;-60
2024/04/09 11:50:04;;;;;;;579.15;352.92;;;35.10;19.70;;;;;;5317647;26;20017;-65
2024/04/09 11:52:38;;;;;;;630.78;392.92;;;34.80;19.80;;;;;;5319477;26;20009;-62
2024/04/09 11:55:08;;;;;;;598.50;387.58;;;34.70;19.90;;;;;;5322504;26;20070;-62
2024/04/09 11:57:46;;;;;;;761.10;410.60;;;34.60;20.10;;;;;;5308670;26;20000;-61
2024/04/09 12:00:15;;;;;;;623.83;380.52;;;34.40;20.00;;;;;;5305188;26;20000;-60
2024/04/09 12:02:49;;;;;;;595.60;366.13;;;34.30;20.10;;;;;;5323770;26;20060;-61
2024/04/09 12:05:17;;;;;;;593.50;354.55;;;34.20;20.20;;;;;;5315517;26;20082;-65
2024/04/09 12:07:49;;;;;;;779.90;437.13;;;34.00;20.30;;;;;;5336492;26;20448;-62
2024/04/09 12:10:17;;;;;;;611.00;357.00;;;33.90;20.40;;;;;;5309174;26;20038;-61
2024/04/09 12:12:51;;;;;;;598.53;358.25;;;33.90;20.50;;;;;;5312261;26;20071;-62
2024/04/09 12:15:23;;;;;;;600.22;357.52;;;33.80;20.60;;;;;;5338364;26;20085;-62
2024/04/09 12:17:51;;;;;;;628.05;388.50;;;33.70;20.60;;;;;;5304501;26;20001;-63
2024/04/09 12:20:22;;;;;;;612.63;363.42;;;33.60;20.70;;;;;;5319855;26;20011;-60
2024/04/09 12:22:51;;;;;;;621.40;370.80;;;33.60;20.90;;;;;;5308553;26;20019;-60
2024/04/09 12:25:23;;;;;;;621.67;363.10;;;33.50;20.80;;;;;;5316756;26;20036;-62
2024/04/09 12:27:54;;;;;;;607.08;345.58;;;33.30;20.90;;;;;;5299482;26;20415;-62